Time;durP1;ratioP1;P1;durP2;ratioP2;P2;SDS_P1;SDS_P2;PMS_P1;PMS_P2;Temp;Humidity;BMP_temperature;BMP_pressure;BME280_temperature;BME280_humidity;BME280_pressure;Samples;Min_cycle;Max_cycle;Signal;HPM_P1;HPM_P2
2023/11/15 00:00:51;;;;;;;4.30;3.10;;;9.90;99.90;;;;;;5031595;28;20467;-72
2023/11/15 00:03:21;;;;;;;3.83;2.87;;;9.90;99.90;;;;;;5032826;28;20463;-72
2023/11/15 00:05:49;;;;;;;5.00;3.47;;;9.90;99.90;;;;;;5031814;28;20443;-72
2023/11/15 00:08:18;;;;;;;6.67;4.20;;;9.90;99.90;;;;;;5031598;28;20474;-72
2023/11/15 00:10:46;;;;;;;5.00;3.23;;;9.80;99.90;;;;;;5033552;28;20469;-72
2023/11/15 00:13:14;;;;;;;4.40;3.73;;;9.80;99.90;;;;;;5031592;28;20445;-72
2023/11/15 00:15:43;;;;;;;4.57;3.53;;;9.80;99.90;;;;;;5032747;28;20467;-72
2023/11/15 00:18:13;;;;;;;4.17;3.47;;;9.80;99.90;;;;;;5031548;28;20847;-72
2023/11/15 00:20:43;;;;;;;5.30;3.50;;;9.80;99.90;;;;;;5033606;28;20478;-72
2023/11/15 00:23:12;;;;;;;6.97;3.63;;;9.80;99.90;;;;;;5035518;28;20952;-72
2023/11/15 00:25:40;;;;;;;4.80;3.97;;;9.80;99.90;;;;;;5035235;28;21593;-72
2023/11/15 00:28:08;;;;;;;5.60;4.53;;;9.80;99.90;;;;;;5036420;28;20463;-72
2023/11/15 00:30:37;;;;;;;4.30;3.90;;;9.70;99.90;;;;;;5035008;28;21105;-72
2023/11/15 00:33:05;;;;;;;8.73;5.20;;;9.70;99.90;;;;;;5035032;28;20509;-72
2023/11/15 00:35:34;;;;;;;4.90;4.40;;;9.70;99.90;;;;;;5034925;28;20462;-72
2023/11/15 00:38:04;;;;;;;7.50;4.47;;;9.70;99.90;;;;;;5034954;28;20979;-72
2023/11/15 00:40:33;;;;;;;5.87;5.17;;;9.70;99.90;;;;;;5035546;28;20509;-71
2023/11/15 00:43:03;;;;;;;7.00;5.40;;;9.60;99.90;;;;;;5036404;28;20847;-72
2023/11/15 00:45:31;;;;;;;5.83;4.73;;;9.70;99.90;;;;;;5034865;28;20465;-72
2023/11/15 00:48:00;;;;;;;8.63;4.47;;;9.60;99.90;;;;;;5034867;28;20443;-72
2023/11/15 00:50:28;;;;;;;6.90;4.90;;;9.60;99.90;;;;;;5034639;28;20822;-72
2023/11/15 00:52:58;;;;;;;7.50;4.90;;;9.60;99.90;;;;;;5034639;28;20455;-72
2023/11/15 00:55:27;;;;;;;6.40;5.07;;;9.50;99.90;;;;;;5035842;28;20442;-71
2023/11/15 00:57:57;;;;;;;4.90;4.40;;;9.50;99.90;;;;;;5034760;28;20473;-71
2023/11/15 01:00:27;;;;;;;7.60;5.07;;;9.50;99.90;;;;;;5036036;28;21014;-72
2023/11/15 01:02:57;;;;;;;7.03;5.37;;;9.50;99.90;;;;;;5034488;28;20485;-72
2023/11/15 01:05:26;;;;;;;8.73;4.90;;;9.50;99.90;;;;;;5034522;28;20451;-72
2023/11/15 01:07:54;;;;;;;8.07;5.17;;;9.50;99.90;;;;;;5034511;28;20438;-71
2023/11/15 01:10:24;;;;;;;8.80;5.80;;;9.40;99.90;;;;;;5034491;28;20851;-72
2023/11/15 01:12:54;;;;;;;7.80;6.27;;;9.40;99.90;;;;;;5035822;28;20846;-72
2023/11/15 01:15:23;;;;;;;8.37;7.40;;;9.40;99.90;;;;;;5034271;28;20871;-72
2023/11/15 01:17:53;;;;;;;8.77;6.43;;;9.40;99.90;;;;;;5034079;28;20569;-72
2023/11/15 01:20:21;;;;;;;7.20;5.50;;;9.40;99.90;;;;;;5033997;28;20506;-72
2023/11/15 01:22:50;;;;;;;7.80;5.73;;;9.40;99.90;;;;;;5034099;28;20493;-72
2023/11/15 01:25:20;;;;;;;7.57;5.53;;;9.40;99.90;;;;;;5034072;28;20443;-72
2023/11/15 01:27:48;;;;;;;6.90;4.70;;;9.30;99.90;;;;;;5034051;28;20439;-72
2023/11/15 01:30:18;;;;;;;5.43;4.73;;;9.30;99.90;;;;;;5034096;28;20501;-71
2023/11/15 01:32:47;;;;;;;4.90;4.40;;;9.30;99.90;;;;;;5034001;28;20466;-72
2023/11/15 01:35:17;;;;;;;8.43;4.30;;;9.30;99.90;;;;;;5033975;28;20509;-71
2023/11/15 01:37:46;;;;;;;6.57;4.40;;;9.30;99.90;;;;;;5035537;28;20490;-71
2023/11/15 01:40:15;;;;;;;9.90;5.10;;;9.30;99.90;;;;;;5033870;28;20478;-72
2023/11/15 01:42:44;;;;;;;6.80;4.90;;;9.30;99.90;;;;;;5034611;28;20489;-72
2023/11/15 01:45:12;;;;;;;6.00;4.23;;;9.30;99.90;;;;;;5033711;28;20546;-71
2023/11/15 01:47:43;;;;;;;6.03;4.57;;;9.20;99.90;;;;;;5033868;28;20940;-71
2023/11/15 01:50:13;;;;;;;4.53;3.67;;;9.20;99.90;;;;;;5033772;28;20533;-71
2023/11/15 01:52:43;;;;;;;6.00;4.23;;;9.20;99.90;;;;;;5035136;28;20427;-72
2023/11/15 01:55:15;;;;;;;5.17;4.00;;;9.20;99.90;;;;;;5035243;28;20940;-72
2023/11/15 01:57:44;;;;;;;5.90;4.60;;;9.20;99.90;;;;;;5035103;28;20998;-72
2023/11/15 02:00:14;;;;;;;5.47;4.03;;;9.20;99.90;;;;;;5033381;28;20459;-72
2023/11/15 02:02:45;;;;;;;5.83;4.00;;;9.10;99.90;;;;;;5035046;28;20426;-72
2023/11/15 02:05:13;;;;;;;4.73;4.17;;;9.10;99.90;;;;;;5039304;28;20439;-72
2023/11/15 02:07:43;;;;;;;10.53;4.83;;;9.10;99.90;;;;;;5038020;28;20443;-72
2023/11/15 02:10:12;;;;;;;6.97;4.87;;;9.10;99.90;;;;;;5036118;28;20451;-71
2023/11/15 02:12:40;;;;;;;5.60;4.57;;;9.10;99.90;;;;;;5037695;28;20451;-72
2023/11/15 02:15:09;;;;;;;5.87;4.13;;;9.10;99.90;;;;;;5035647;28;20442;-72
2023/11/15 02:17:38;;;;;;;6.13;4.70;;;9.10;99.90;;;;;;5034425;28;20595;-72
2023/11/15 02:20:09;;;;;;;5.03;4.43;;;9.10;99.90;;;;;;5034773;28;20482;-72
2023/11/15 02:22:45;;;;;;;5.70;4.73;;;9.10;99.90;;;;;;5033988;28;20435;-72
2023/11/15 02:25:16;;;;;;;5.17;4.30;;;9.10;99.90;;;;;;5034647;28;20438;-72
2023/11/15 02:27:45;;;;;;;7.17;4.50;;;9.00;99.90;;;;;;5033911;28;20449;-72
2023/11/15 02:30:14;;;;;;;7.03;4.10;;;9.00;99.90;;;;;;5033426;28;20557;-72
2023/11/15 02:32:43;;;;;;;6.30;4.37;;;9.00;99.90;;;;;;5033227;28;20462;-72
2023/11/15 02:35:12;;;;;;;6.23;4.17;;;9.00;99.90;;;;;;5032807;28;20448;-71
2023/11/15 02:37:40;;;;;;;5.57;4.03;;;9.00;99.90;;;;;;5034230;28;20553;-71
2023/11/15 02:40:10;;;;;;;4.87;4.13;;;9.00;99.90;;;;;;5032593;28;20849;-71
2023/11/15 02:42:40;;;;;;;5.73;4.27;;;8.90;99.90;;;;;;5033908;28;20825;-71
2023/11/15 02:45:10;;;;;;;5.97;4.00;;;8.90;99.90;;;;;;5032829;28;20439;-72
2023/11/15 02:47:38;;;;;;;5.57;4.07;;;8.90;99.90;;;;;;5033961;28;20857;-72
2023/11/15 02:50:08;;;;;;;3.80;3.40;;;8.90;99.90;;;;;;5032870;28;20474;-71
2023/11/15 02:52:36;;;;;;;7.40;3.90;;;8.90;99.90;;;;;;5032760;28;20443;-71
2023/11/15 02:55:05;;;;;;;6.87;4.70;;;8.80;99.90;;;;;;5032545;28;20493;-72
2023/11/15 02:57:33;;;;;;;5.67;4.27;;;8.80;99.90;;;;;;5032340;28;20502;-72
2023/11/15 03:00:05;;;;;;;9.30;4.23;;;8.80;99.90;;;;;;5032404;28;21077;-72
2023/11/15 03:02:33;;;;;;;6.53;4.20;;;8.80;99.90;;;;;;5032347;28;20489;-71
2023/11/15 03:05:02;;;;;;;4.83;3.97;;;8.80;99.90;;;;;;5032497;28;20447;-72
2023/11/15 03:07:30;;;;;;;6.10;4.30;;;8.70;99.90;;;;;;5032272;28;20435;-72
2023/11/15 03:09:59;;;;;;;4.13;3.63;;;8.70;99.90;;;;;;5033436;28;20798;-72
2023/11/15 03:12:28;;;;;;;6.63;4.20;;;8.70;99.90;;;;;;5033504;28;20442;-72
2023/11/15 03:14:56;;;;;;;6.63;4.20;;;8.60;99.90;;;;;;5032137;28;20530;-72
2023/11/15 03:17:26;;;;;;;7.70;4.93;;;8.60;99.90;;;;;;5033302;28;20467;-72
2023/11/15 03:19:55;;;;;;;5.30;4.70;;;8.60;99.90;;;;;;5031908;28;20443;-72
2023/11/15 03:22:23;;;;;;;10.37;5.57;;;8.60;99.90;;;;;;5032060;28;20460;-72
2023/11/15 03:24:51;;;;;;;6.90;4.10;;;8.60;99.90;;;;;;5032045;28;20443;-72
2023/11/15 03:27:19;;;;;;;10.23;5.50;;;8.50;99.90;;;;;;5032158;28;20485;-72
2023/11/15 03:29:47;;;;;;;5.57;5.07;;;8.50;99.90;;;;;;5032057;28;21013;-72
2023/11/15 03:32:17;;;;;;;5.30;4.80;;;8.50;99.90;;;;;;5033474;28;20924;-72
2023/11/15 03:34:47;;;;;;;7.27;4.67;;;8.50;99.90;;;;;;5031996;28;20890;-72
2023/11/15 03:37:15;;;;;;;5.23;4.27;;;8.50;99.90;;;;;;5031885;28;20473;-72
2023/11/15 03:39:45;;;;;;;6.97;5.30;;;8.50;99.90;;;;;;5031767;28;20461;-71
2023/11/15 03:42:13;;;;;;;6.90;5.00;;;8.40;99.90;;;;;;5032058;28;20906;-72
2023/11/15 03:44:41;;;;;;;6.30;5.30;;;8.40;99.90;;;;;;5031855;28;20446;-71
2023/11/15 03:47:11;;;;;;;8.87;5.60;;;8.40;99.90;;;;;;5031787;28;20457;-72
2023/11/15 03:49:39;;;;;;;9.60;6.07;;;8.40;99.90;;;;;;5031809;28;20451;-72
2023/11/15 03:52:09;;;;;;;5.70;5.10;;;8.40;99.90;;;;;;5032901;28;20494;-72
2023/11/15 03:54:37;;;;;;;7.03;6.00;;;8.40;99.90;;;;;;5032765;28;20454;-72
2023/11/15 03:57:07;;;;;;;5.93;5.23;;;8.30;99.90;;;;;;5035693;28;20529;-71
2023/11/15 03:59:36;;;;;;;6.00;5.40;;;8.30;99.90;;;;;;5035935;28;20447;-71
2023/11/15 04:02:06;;;;;;;8.13;5.73;;;8.30;99.90;;;;;;5036888;28;20528;-71
2023/11/15 04:04:34;;;;;;;6.90;5.50;;;8.30;99.90;;;;;;5037130;28;20442;-71
2023/11/15 04:07:04;;;;;;;5.97;5.27;;;8.30;99.90;;;;;;5037088;28;20469;-72
2023/11/15 04:09:34;;;;;;;8.13;5.70;;;8.30;99.90;;;;;;5035530;28;20873;-71
2023/11/15 04:12:02;;;;;;;6.90;5.13;;;8.30;99.90;;;;;;5036675;28;20485;-72
2023/11/15 04:14:30;;;;;;;7.73;5.33;;;8.30;99.90;;;;;;5035440;28;20505;-72
2023/11/15 04:17:00;;;;;;;7.37;5.60;;;8.30;99.90;;;;;;5035326;28;20457;-71
2023/11/15 04:19:28;;;;;;;7.63;5.23;;;8.30;99.90;;;;;;5035258;28;20466;-72
2023/11/15 04:21:56;;;;;;;6.57;4.67;;;8.30;99.90;;;;;;5035240;28;20898;-71
2023/11/15 04:24:44;;;;;;;7.87;5.30;;;8.30;99.90;;;;;;5035280;28;20482;-72
2023/11/15 04:27:12;;;;;;;9.23;6.23;;;8.30;99.90;;;;;;5035179;28;20513;-71
2023/11/15 04:29:41;;;;;;;6.27;4.70;;;8.30;99.90;;;;;;5035197;28;20952;-73
2023/11/15 04:32:09;;;;;;;9.93;4.70;;;8.30;99.90;;;;;;5036311;28;20462;-72
2023/11/15 04:34:38;;;;;;;5.90;5.00;;;8.30;99.90;;;;;;5036371;28;20805;-72
2023/11/15 04:37:06;;;;;;;7.83;5.40;;;8.30;99.90;;;;;;5035086;28;20438;-72
2023/11/15 04:39:34;;;;;;;5.43;4.00;;;8.30;99.90;;;;;;5035092;28;20477;-72
2023/11/15 04:42:04;;;;;;;7.47;4.83;;;8.30;99.90;;;;;;5036161;28;21002;-72
2023/11/15 04:44:32;;;;;;;5.07;4.30;;;8.30;99.90;;;;;;5035820;28;20476;-72
2023/11/15 04:47:01;;;;;;;5.60;4.47;;;8.40;99.90;;;;;;5034848;28;20435;-72
2023/11/15 04:49:29;;;;;;;6.20;5.60;;;8.40;99.90;;;;;;5034841;28;20446;-72
2023/11/15 04:51:57;;;;;;;5.40;4.13;;;8.40;99.90;;;;;;5034894;28;21062;-72
2023/11/15 04:54:25;;;;;;;5.53;4.20;;;8.40;99.90;;;;;;5034700;28;20497;-72
2023/11/15 04:56:53;;;;;;;4.50;3.90;;;8.30;99.90;;;;;;5034625;28;20941;-72
2023/11/15 04:59:23;;;;;;;7.23;4.23;;;8.40;99.90;;;;;;5035813;28;20976;-72
2023/11/15 05:01:51;;;;;;;4.83;3.93;;;8.40;99.90;;;;;;5034593;28;20466;-72
2023/11/15 05:04:19;;;;;;;6.30;4.10;;;8.30;99.90;;;;;;5034588;28;20786;-72
2023/11/15 05:06:48;;;;;;;6.37;4.17;;;8.40;99.90;;;;;;5034088;28;20525;-72
2023/11/15 05:09:17;;;;;;;5.47;3.90;;;8.30;99.90;;;;;;5034609;28;20953;-72
2023/11/15 05:11:45;;;;;;;7.60;4.10;;;8.30;99.90;;;;;;5035726;28;20462;-72
2023/11/15 05:14:14;;;;;;;7.40;3.90;;;8.30;99.90;;;;;;5035864;28;20522;-72
2023/11/15 05:16:43;;;;;;;6.37;4.17;;;8.30;99.90;;;;;;5035553;28;20842;-72
2023/11/15 05:19:12;;;;;;;6.83;4.00;;;8.30;99.90;;;;;;5034407;28;21064;-72
2023/11/15 05:21:40;;;;;;;6.43;3.57;;;8.30;99.90;;;;;;5034157;28;20474;-72
2023/11/15 05:24:09;;;;;;;4.63;3.50;;;8.30;99.90;;;;;;5035756;28;20865;-72
2023/11/15 05:26:37;;;;;;;5.20;4.23;;;8.30;99.90;;;;;;5034433;28;20455;-72
2023/11/15 05:29:06;;;;;;;4.50;4.10;;;8.30;99.90;;;;;;5034123;28;20441;-72
2023/11/15 05:31:34;;;;;;;7.40;4.13;;;8.30;99.90;;;;;;5035192;28;20565;-72
2023/11/15 05:34:03;;;;;;;6.67;4.73;;;8.30;99.90;;;;;;5034028;28;20458;-72
2023/11/15 05:36:32;;;;;;;6.13;4.07;;;8.30;99.90;;;;;;5034194;28;20501;-72
2023/11/15 05:39:00;;;;;;;5.60;4.60;;;8.30;99.90;;;;;;5033826;28;20471;-72
2023/11/15 05:41:28;;;;;;;5.27;4.03;;;8.30;99.90;;;;;;5033768;28;20837;-72
2023/11/15 05:43:57;;;;;;;5.40;4.30;;;8.30;99.90;;;;;;5033920;28;20447;-72
2023/11/15 05:46:25;;;;;;;6.83;4.30;;;8.20;99.90;;;;;;5035337;28;20438;-72
2023/11/15 05:48:54;;;;;;;6.63;4.07;;;8.20;99.90;;;;;;5033776;28;20500;-72
2023/11/15 05:51:24;;;;;;;8.90;4.50;;;8.20;99.90;;;;;;5033824;28;20496;-72
2023/11/15 05:53:52;;;;;;;5.57;4.97;;;8.20;99.90;;;;;;5033652;28;20451;-72
2023/11/15 05:56:21;;;;;;;7.03;4.87;;;8.20;99.90;;;;;;5035066;28;20497;-72
2023/11/15 05:58:49;;;;;;;5.77;4.30;;;8.20;99.90;;;;;;5034974;28;21048;-72
2023/11/15 06:01:17;;;;;;;6.03;4.70;;;8.20;99.90;;;;;;5033498;28;20463;-72
2023/11/15 06:03:48;;;;;;;6.03;4.70;;;8.20;99.90;;;;;;5033444;28;20542;-72
2023/11/15 06:06:17;;;;;;;8.37;6.30;;;8.20;99.90;;;;;;5034082;28;20777;-72
2023/11/15 06:08:47;;;;;;;9.00;7.10;;;8.20;99.90;;;;;;5033450;28;20871;-72
2023/11/15 06:11:16;;;;;;;12.43;7.87;;;8.20;99.90;;;;;;5034945;28;20447;-72
2023/11/15 06:13:44;;;;;;;10.23;7.40;;;8.20;99.90;;;;;;5034535;28;20962;-72
2023/11/15 06:16:14;;;;;;;7.53;6.73;;;8.20;99.90;;;;;;5034789;28;20431;-72
2023/11/15 06:18:44;;;;;;;8.70;7.63;;;8.20;99.90;;;;;;5032287;28;20477;-72
2023/11/15 06:21:13;;;;;;;10.97;7.73;;;8.20;99.90;;;;;;5034454;28;20875;-72
2023/11/15 06:23:42;;;;;;;12.87;9.30;;;8.20;99.90;;;;;;5034313;28;20951;-72
2023/11/15 06:26:12;;;;;;;10.60;8.67;;;8.20;99.90;;;;;;5033189;28;20451;-72
2023/11/15 06:28:41;;;;;;;9.67;8.37;;;8.20;99.90;;;;;;5033030;28;20483;-72
2023/11/15 06:31:09;;;;;;;11.07;8.40;;;8.20;99.90;;;;;;5034093;28;20459;-72
2023/11/15 06:33:38;;;;;;;10.77;8.40;;;8.20;99.90;;;;;;5034681;28;20489;-72
2023/11/15 06:36:08;;;;;;;10.10;9.10;;;8.20;99.90;;;;;;5034013;28;20550;-72
2023/11/15 06:38:36;;;;;;;9.50;8.33;;;8.20;99.90;;;;;;5032714;28;20447;-73
2023/11/15 06:41:07;;;;;;;9.70;8.30;;;8.20;99.90;;;;;;5032652;28;20471;-72
2023/11/15 06:43:37;;;;;;;14.23;10.07;;;8.20;99.90;;;;;;5033023;28;20967;-73
2023/11/15 06:46:05;;;;;;;11.00;9.27;;;8.20;99.90;;;;;;5032901;28;20442;-72
2023/11/15 06:48:34;;;;;;;10.50;8.60;;;8.20;99.90;;;;;;5032855;28;20450;-72
2023/11/15 06:51:02;;;;;;;11.37;8.60;;;8.20;99.90;;;;;;5032743;28;20497;-72
2023/11/15 06:53:31;;;;;;;12.00;9.40;;;8.10;99.90;;;;;;5034147;28;20443;-72
2023/11/15 06:55:59;;;;;;;10.73;8.70;;;8.10;99.90;;;;;;5033801;28;20439;-72
2023/11/15 06:58:28;;;;;;;12.17;8.87;;;8.10;99.90;;;;;;5033732;28;20504;-72
2023/11/15 07:00:58;;;;;;;10.73;9.60;;;8.10;99.90;;;;;;5032262;28;20533;-72
2023/11/15 07:03:26;;;;;;;11.63;9.73;;;8.00;99.90;;;;;;5032452;28;20427;-72
2023/11/15 07:05:55;;;;;;;13.10;10.90;;;8.00;99.90;;;;;;5033935;28;20435;-72
2023/11/15 07:08:23;;;;;;;11.73;10.30;;;8.00;99.90;;;;;;5033612;28;20435;-72
2023/11/15 07:10:54;;;;;;;14.30;11.40;;;8.00;99.90;;;;;;5033524;28;20959;-72
2023/11/15 07:13:23;;;;;;;15.27;11.37;;;8.00;99.90;;;;;;5032392;28;20959;-72
2023/11/15 07:15:51;;;;;;;15.70;12.47;;;8.00;99.90;;;;;;5033552;28;20446;-72
2023/11/15 07:18:21;;;;;;;15.87;11.50;;;8.00;99.90;;;;;;5033652;28;20430;-72
2023/11/15 07:20:54;;;;;;;16.53;11.67;;;8.00;99.90;;;;;;5031969;28;20576;-72
2023/11/15 07:23:22;;;;;;;16.63;11.83;;;8.00;99.90;;;;;;5032357;28;20439;-72
2023/11/15 07:25:51;;;;;;;16.73;13.30;;;8.00;99.90;;;;;;5032174;28;20875;-72
2023/11/15 07:28:19;;;;;;;15.43;11.97;;;8.00;99.90;;;;;;5031994;28;20501;-72
2023/11/15 07:30:50;;;;;;;16.10;12.70;;;8.00;99.90;;;;;;5032085;28;20474;-72
2023/11/15 07:33:20;;;;;;;19.07;13.90;;;8.10;99.90;;;;;;5032258;28;20943;-72
2023/11/15 07:35:50;;;;;;;18.27;12.60;;;8.10;99.90;;;;;;5032312;28;20860;-72
2023/11/15 07:38:19;;;;;;;19.70;12.43;;;8.10;99.90;;;;;;5032022;28;20455;-72
2023/11/15 07:40:48;;;;;;;16.23;13.10;;;8.10;99.90;;;;;;5031895;28;20490;-72
2023/11/15 07:43:17;;;;;;;15.43;12.10;;;8.10;99.90;;;;;;5033193;28;20438;-72
2023/11/15 07:45:51;;;;;;;16.07;12.30;;;8.10;99.90;;;;;;5032063;28;20516;-72
2023/11/15 07:48:20;;;;;;;16.03;12.83;;;8.20;99.90;;;;;;5031969;28;20944;-72
2023/11/15 07:50:51;;;;;;;12.43;11.03;;;8.20;99.90;;;;;;5033303;28;20455;-72
2023/11/15 07:53:19;;;;;;;16.17;13.33;;;8.20;99.90;;;;;;5031842;28;20434;-72
2023/11/15 07:55:48;;;;;;;16.53;13.40;;;8.20;99.90;;;;;;5031862;28;20501;-72
2023/11/15 07:58:17;;;;;;;18.80;13.80;;;8.20;99.90;;;;;;5031897;28;20454;-72
2023/11/15 08:00:46;;;;;;;22.23;13.57;;;8.20;99.90;;;;;;5031848;28;20480;-72
2023/11/15 08:03:15;;;;;;;18.87;14.57;;;8.30;99.90;;;;;;5031837;28;20552;-72
2023/11/15 08:05:44;;;;;;;16.53;12.60;;;8.30;99.90;;;;;;5031686;28;20451;-72
2023/11/15 08:08:15;;;;;;;15.80;12.63;;;8.30;99.90;;;;;;5031771;28;20952;-72
2023/11/15 08:10:48;;;;;;;18.50;12.27;;;8.30;99.90;;;;;;5033365;28;20465;-72
2023/11/15 08:13:19;;;;;;;15.53;12.30;;;8.30;99.90;;;;;;5032997;28;20427;-72
2023/11/15 08:15:48;;;;;;;20.67;12.47;;;8.30;99.90;;;;;;5031773;28;20447;-72
2023/11/15 08:18:16;;;;;;;15.43;12.80;;;8.40;99.90;;;;;;5031694;28;20457;-72
2023/11/15 08:20:46;;;;;;;16.10;12.97;;;8.40;99.90;;;;;;5031491;28;20482;-72
2023/11/15 08:23:16;;;;;;;15.33;12.40;;;8.40;99.90;;;;;;5031505;28;20872;-72
2023/11/15 08:25:47;;;;;;;15.57;11.87;;;8.40;99.90;;;;;;5031948;28;20504;-72
2023/11/15 08:28:15;;;;;;;13.70;11.87;;;8.50;99.90;;;;;;5031544;28;20439;-72
2023/11/15 08:30:45;;;;;;;13.90;12.30;;;8.50;99.90;;;;;;5031512;28;20558;-72
2023/11/15 08:33:15;;;;;;;15.27;11.60;;;8.50;99.90;;;;;;5031512;28;20447;-72
2023/11/15 08:35:47;;;;;;;12.60;11.27;;;8.50;99.90;;;;;;5031477;28;20446;-72
2023/11/15 08:38:18;;;;;;;14.70;11.60;;;8.50;99.90;;;;;;5033211;28;20927;-72
2023/11/15 08:40:49;;;;;;;13.63;11.03;;;8.50;99.90;;;;;;5033212;28;20475;-72
2023/11/15 08:43:18;;;;;;;11.37;10.20;;;8.60;99.90;;;;;;5035276;28;20481;-72
2023/11/15 08:45:47;;;;;;;12.83;10.90;;;8.60;99.90;;;;;;5035057;28;20816;-72
2023/11/15 08:48:17;;;;;;;11.87;10.50;;;8.60;99.90;;;;;;5035327;28;20446;-72
2023/11/15 08:50:47;;;;;;;12.53;9.93;;;8.60;99.90;;;;;;5034840;28;20972;-72
2023/11/15 08:53:24;;;;;;;13.70;10.90;;;8.60;99.90;;;;;;5034937;28;20450;-72
2023/11/15 08:55:53;;;;;;;14.87;10.33;;;8.60;99.90;;;;;;5034907;28;20485;-72
2023/11/15 08:58:27;;;;;;;17.17;11.60;;;8.70;99.90;;;;;;5034714;28;20454;-72
2023/11/15 09:01:01;;;;;;;15.27;12.40;;;8.70;99.90;;;;;;5034722;28;20882;-72
2023/11/15 09:03:29;;;;;;;15.50;12.03;;;8.70;99.90;;;;;;5034733;28;20430;-71
2023/11/15 09:05:59;;;;;;;12.90;11.60;;;8.70;99.90;;;;;;5034553;28;20459;-72
2023/11/15 09:08:31;;;;;;;14.27;12.30;;;8.70;99.90;;;;;;5034517;28;20490;-71
2023/11/15 09:10:59;;;;;;;12.57;11.23;;;8.80;99.90;;;;;;5034429;28;20463;-72
2023/11/15 09:13:28;;;;;;;12.00;10.70;;;8.80;99.90;;;;;;5034490;28;20446;-71
2023/11/15 09:15:58;;;;;;;12.60;11.30;;;8.80;99.90;;;;;;5034308;28;20546;-72
2023/11/15 09:18:27;;;;;;;14.97;13.00;;;8.90;99.90;;;;;;5034445;28;20449;-72
2023/11/15 09:20:56;;;;;;;15.23;13.13;;;8.90;99.90;;;;;;5033998;28;20529;-72
2023/11/15 09:23:26;;;;;;;12.17;10.73;;;9.10;99.90;;;;;;5035124;28;20442;-72
2023/11/15 09:25:59;;;;;;;13.23;10.80;;;9.10;99.90;;;;;;5034168;28;20454;-72
2023/11/15 09:28:29;;;;;;;12.90;11.47;;;9.10;99.90;;;;;;5035373;28;20493;-72
2023/11/15 09:30:57;;;;;;;15.20;11.10;;;9.20;99.90;;;;;;5034088;28;20972;-72
2023/11/15 09:33:27;;;;;;;12.47;11.20;;;9.20;99.90;;;;;;5034353;28;20439;-72
2023/11/15 09:35:58;;;;;;;11.70;10.37;;;9.20;99.90;;;;;;5034096;28;20447;-72
2023/11/15 09:38:31;;;;;;;12.87;10.40;;;9.20;99.90;;;;;;5035520;28;20518;-72
2023/11/15 09:41:01;;;;;;;14.67;11.47;;;9.30;99.90;;;;;;5033849;28;20479;-72
2023/11/15 09:43:34;;;;;;;13.43;10.70;;;9.30;99.90;;;;;;5035207;28;20466;-72
2023/11/15 09:46:08;;;;;;;13.27;10.30;;;9.30;99.90;;;;;;5033937;28;20968;-72
2023/11/15 09:48:43;;;;;;;11.00;9.57;;;9.30;99.90;;;;;;5033795;28;20475;-72
2023/11/15 09:51:25;;;;;;;11.90;10.10;;;9.40;99.90;;;;;;5035121;28;20462;-72
2023/11/15 09:53:57;;;;;;;11.93;9.80;;;9.40;99.90;;;;;;5036731;28;20439;-72
2023/11/15 09:56:45;;;;;;;15.30;9.83;;;9.40;99.90;;;;;;5038515;28;20435;-72
2023/11/15 09:59:15;;;;;;;12.30;9.97;;;9.50;99.90;;;;;;5035628;28;20956;-72
2023/11/15 10:01:45;;;;;;;11.33;9.97;;;9.50;99.90;;;;;;5037680;28;20576;-72
2023/11/15 10:04:24;;;;;;;9.40;8.50;;;9.50;99.90;;;;;;5038215;28;20446;-72
2023/11/15 10:06:55;;;;;;;10.07;9.07;;;9.50;99.90;;;;;;5034343;28;20477;-72
2023/11/15 10:09:36;;;;;;;10.87;9.23;;;9.60;99.90;;;;;;5035968;28;20423;-72
2023/11/15 10:12:07;;;;;;;9.37;7.87;;;9.60;99.90;;;;;;5034296;28;20927;-72
2023/11/15 10:14:50;;;;;;;8.97;7.53;;;9.60;99.90;;;;;;5034238;28;20442;-72
2023/11/15 10:17:20;;;;;;;9.03;7.97;;;9.70;99.90;;;;;;5034408;28;20450;-72
2023/11/15 10:19:49;;;;;;;10.07;7.77;;;9.70;99.90;;;;;;5033528;28;20447;-72
2023/11/15 10:22:21;;;;;;;8.07;6.87;;;9.70;99.90;;;;;;5034666;28;20529;-72
2023/11/15 10:25:05;;;;;;;8.27;6.87;;;9.70;99.90;;;;;;5033710;28;20431;-72
2023/11/15 10:27:37;;;;;;;8.97;7.93;;;9.70;99.90;;;;;;5033422;28;20545;-72
2023/11/15 10:30:12;;;;;;;8.90;7.77;;;9.80;99.90;;;;;;5033134;28;20476;-72
2023/11/15 10:32:41;;;;;;;10.33;8.33;;;9.80;99.90;;;;;;5033243;28;20446;-72
2023/11/15 10:35:10;;;;;;;7.70;7.00;;;9.80;99.90;;;;;;5033094;28;20474;-72
2023/11/15 10:37:49;;;;;;;7.97;7.17;;;9.80;99.90;;;;;;5033073;28;20447;-72
2023/11/15 10:40:18;;;;;;;10.73;7.37;;;9.90;99.90;;;;;;5032914;28;20471;-72
2023/11/15 10:42:49;;;;;;;7.90;6.83;;;9.80;99.90;;;;;;5032784;28;20459;-72
2023/11/15 10:45:23;;;;;;;8.87;6.70;;;9.90;99.90;;;;;;5034384;28;20454;-72
2023/11/15 10:47:58;;;;;;;7.93;7.07;;;9.90;99.90;;;;;;5032683;28;20489;-72
2023/11/15 10:50:30;;;;;;;10.20;7.23;;;9.90;99.90;;;;;;5034135;28;20828;-72
2023/11/15 10:53:00;;;;;;;7.80;6.80;;;9.90;99.90;;;;;;5033937;28;20481;-72
2023/11/15 10:55:29;;;;;;;8.33;7.43;;;10.00;99.90;;;;;;5032523;28;20474;-72
2023/11/15 10:58:02;;;;;;;10.10;9.03;;;10.00;99.90;;;;;;5032628;28;20457;-72
2023/11/15 11:00:31;;;;;;;8.70;7.80;;;10.00;99.90;;;;;;5032447;28;20474;-72
2023/11/15 11:02:59;;;;;;;8.47;7.67;;;10.10;99.90;;;;;;5032423;28;20984;-72
2023/11/15 11:05:44;;;;;;;9.20;7.60;;;10.10;99.90;;;;;;5032113;28;20809;-72
2023/11/15 11:08:25;;;;;;;9.87;8.87;;;10.20;99.90;;;;;;5032439;28;20439;-72
2023/11/15 11:11:05;;;;;;;9.90;8.53;;;10.20;99.90;;;;;;5034012;28;20498;-72
2023/11/15 11:13:35;;;;;;;9.83;8.73;;;10.20;99.90;;;;;;5032220;28;20497;-72
2023/11/15 11:16:34;;;;;;;10.60;8.47;;;10.20;99.90;;;;;;5032266;28;20438;-72
2023/11/15 11:19:11;;;;;;;10.80;9.63;;;10.30;99.90;;;;;;5033986;28;20844;-72
2023/11/15 11:22:07;;;;;;;17.27;9.70;;;10.30;99.90;;;;;;5033449;28;20930;-72
2023/11/15 11:24:39;;;;;;;11.83;9.80;;;10.30;99.90;;;;;;5032150;28;20474;-72
2023/11/15 11:27:30;;;;;;;12.83;11.30;;;10.30;99.90;;;;;;5032073;28;20439;-72
2023/11/15 11:30:20;;;;;;;13.90;12.50;;;10.30;99.90;;;;;;5032022;28;20446;-72
2023/11/15 11:32:50;;;;;;;13.50;12.00;;;10.40;99.90;;;;;;5031994;28;20485;-72
2023/11/15 11:35:34;;;;;;;13.27;11.87;;;10.40;99.90;;;;;;5032029;28;20447;-72
2023/11/15 11:38:03;;;;;;;13.83;11.90;;;10.40;99.90;;;;;;5031923;28;20817;-72
2023/11/15 11:40:38;;;;;;;13.30;11.17;;;10.40;99.90;;;;;;5031878;28;20458;-72
2023/11/15 11:43:22;;;;;;;12.80;11.00;;;10.50;99.90;;;;;;5031838;28;20458;-72
2023/11/15 11:45:53;;;;;;;12.33;9.73;;;10.40;99.90;;;;;;5031889;28;20458;-72
2023/11/15 11:48:24;;;;;;;12.80;10.57;;;10.50;99.90;;;;;;5033143;28;20482;-72
2023/11/15 11:50:58;;;;;;;10.90;9.73;;;10.50;99.90;;;;;;5031804;28;20470;-72
2023/11/15 11:53:27;;;;;;;11.50;10.30;;;10.50;99.90;;;;;;5031740;28;20450;-72
2023/11/15 11:55:57;;;;;;;12.40;11.10;;;10.50;99.90;;;;;;5031786;28;20470;-72
2023/11/15 11:58:27;;;;;;;10.57;9.47;;;10.50;99.90;;;;;;5031724;28;20528;-72
2023/11/15 12:01:02;;;;;;;11.53;10.20;;;10.50;99.90;;;;;;5032870;28;20497;-72
2023/11/15 12:03:31;;;;;;;8.13;7.33;;;10.60;99.90;;;;;;5031647;28;20544;-72
2023/11/15 12:06:07;;;;;;;10.03;8.73;;;10.60;99.90;;;;;;5032928;28;20502;-72
2023/11/15 12:08:37;;;;;;;8.67;7.70;;;10.60;99.90;;;;;;5031701;28;20447;-72
2023/11/15 12:11:06;;;;;;;9.50;8.50;;;10.60;99.90;;;;;;5031549;28;20905;-72
2023/11/15 12:13:47;;;;;;;10.53;8.33;;;10.60;99.90;;;;;;5031624;28;20509;-72
2023/11/15 12:16:22;;;;;;;10.40;8.70;;;10.60;99.90;;;;;;5033252;28;20477;-72
2023/11/15 12:19:03;;;;;;;10.83;8.40;;;10.60;99.90;;;;;;5035431;28;20464;-72
2023/11/15 12:21:33;;;;;;;10.90;8.50;;;10.60;99.90;;;;;;5036450;28;20474;-72
2023/11/15 12:24:04;;;;;;;8.77;7.93;;;10.60;99.90;;;;;;5035415;28;20439;-72
2023/11/15 12:26:42;;;;;;;9.70;8.00;;;10.60;99.90;;;;;;5037078;28;20936;-72
2023/11/15 12:29:21;;;;;;;10.90;9.20;;;10.70;99.90;;;;;;5035291;28;20439;-72
2023/11/15 12:31:53;;;;;;;9.10;8.20;;;10.70;99.90;;;;;;5035156;28;20554;-72
2023/11/15 12:34:22;;;;;;;9.60;8.60;;;10.80;99.90;;;;;;5036479;28;20451;-72
2023/11/15 12:36:52;;;;;;;11.47;9.50;;;10.80;99.90;;;;;;5036559;28;20467;-72
2023/11/15 12:39:22;;;;;;;9.33;8.40;;;10.90;99.90;;;;;;5035028;28;20458;-72
2023/11/15 12:41:52;;;;;;;9.63;8.70;;;11.00;99.90;;;;;;5034819;28;20933;-72
2023/11/15 12:44:21;;;;;;;10.43;9.43;;;11.00;99.90;;;;;;5034947;28;20894;-72
2023/11/15 12:46:57;;;;;;;11.73;9.07;;;11.00;99.90;;;;;;5034959;28;20944;-72
2023/11/15 12:49:27;;;;;;;9.70;8.80;;;11.10;99.90;;;;;;5034910;28;20443;-72
2023/11/15 12:51:55;;;;;;;8.67;7.77;;;11.10;99.90;;;;;;5036061;28;20458;-72
2023/11/15 12:54:24;;;;;;;8.50;7.70;;;11.10;99.90;;;;;;5035005;28;20521;-72
2023/11/15 12:57:07;;;;;;;8.57;7.50;;;11.10;99.90;;;;;;5034796;28;20833;-72
2023/11/15 12:59:37;;;;;;;9.17;8.10;;;11.10;99.90;;;;;;5034839;28;20818;-72
2023/11/15 13:02:11;;;;;;;8.33;7.50;;;11.10;99.90;;;;;;5034745;28;20474;-72
2023/11/15 13:04:47;;;;;;;8.10;7.23;;;11.10;99.90;;;;;;5035932;28;20513;-72